Time;durP1;ratioP1;P1;durP2;ratioP2;P2;SDS_P1;SDS_P2;PMS_P1;PMS_P2;Temp;Humidity;BMP_temperature;BMP_pressure;BME280_temperature;BME280_humidity;BME280_pressure;Samples;Min_cycle;Max_cycle;Signal;HPM_P1;HPM_P2
2021/11/25 00:01:51;;;;;;;23.48;14.35;;;5.50;96.10;;;;;;5031507;28;20049;-85
2021/11/25 00:04:17;;;;;;;18.83;13.95;;;5.40;96.20;;;;;;5020197;28;20032;-82
2021/11/25 00:06:43;;;;;;;22.05;14.43;;;5.40;96.40;;;;;;5022584;28;20033;-82
2021/11/25 00:09:08;;;;;;;24.50;14.25;;;5.30;96.40;;;;;;5022030;28;20406;-82
2021/11/25 00:11:34;;;;;;;29.25;15.85;;;5.30;96.50;;;;;;5027988;28;20079;-82
2021/11/25 00:14:00;;;;;;;19.27;13.85;;;5.20;96.60;;;;;;5028905;28;20582;-83
2021/11/25 00:16:26;;;;;;;20.35;14.30;;;5.20;96.60;;;;;;5024743;28;20045;-84
2021/11/25 00:18:52;;;;;;;23.10;15.35;;;5.10;96.60;;;;;;5020439;28;20037;-84
2021/11/25 00:21:17;;;;;;;20.25;14.20;;;5.10;96.70;;;;;;5027815;28;20527;-83
2021/11/25 00:23:44;;;;;;;29.55;15.52;;;5.10;96.70;;;;;;5026527;28;20100;-81
2021/11/25 00:26:10;;;;;;;24.95;15.65;;;5.00;96.80;;;;;;5029410;28;20486;-82
2021/11/25 00:28:36;;;;;;;23.55;15.45;;;4.90;96.80;;;;;;5019057;28;20047;-80
2021/11/25 00:31:02;;;;;;;24.45;15.85;;;4.90;97.00;;;;;;5027935;28;20470;-85
2021/11/25 00:33:28;;;;;;;21.23;14.25;;;4.80;97.10;;;;;;5021222;28;20053;-83
2021/11/25 00:35:54;;;;;;;22.55;14.02;;;4.80;97.10;;;;;;5022634;28;20087;-84
2021/11/25 00:38:20;;;;;;;24.48;15.85;;;4.70;97.10;;;;;;5015151;28;20033;-83
2021/11/25 00:40:45;;;;;;;24.10;15.93;;;4.70;97.20;;;;;;5017403;28;20061;-82
2021/11/25 00:43:11;;;;;;;24.17;16.55;;;4.60;97.40;;;;;;5027009;28;20079;-81
2021/11/25 00:45:37;;;;;;;24.92;16.52;;;4.60;97.50;;;;;;5013097;28;20026;-83
2021/11/25 00:48:02;;;;;;;26.38;15.60;;;4.60;97.60;;;;;;5024262;28;20120;-82
2021/11/25 00:50:28;;;;;;;23.83;15.65;;;4.50;97.60;;;;;;5026669;28;20044;-82
2021/11/25 00:52:54;;;;;;;25.75;15.88;;;4.50;97.80;;;;;;5029193;28;20363;-82
2021/11/25 00:55:20;;;;;;;26.00;16.25;;;4.40;97.80;;;;;;5024346;28;20056;-83
2021/11/25 00:57:46;;;;;;;22.80;15.38;;;4.40;97.90;;;;;;5019424;28;20025;-82
2021/11/25 01:00:17;;;;;;;26.23;15.73;;;4.30;98.00;;;;;;5023897;28;20160;-83
2021/11/25 01:02:44;;;;;;;26.65;15.35;;;4.30;98.20;;;;;;5016565;28;20048;-83
2021/11/25 01:05:10;;;;;;;24.98;15.23;;;4.30;98.30;;;;;;5027913;28;20038;-84
2021/11/25 01:07:36;;;;;;;28.02;16.35;;;4.20;98.40;;;;;;5023012;28;20160;-85
2021/11/25 01:10:04;;;;;;;25.10;16.77;;;4.20;98.70;;;;;;5019664;28;20413;-84
2021/11/25 01:12:31;;;;;;;25.85;16.83;;;4.20;98.50;;;;;;5026267;28;20026;-81
2021/11/25 01:14:57;;;;;;;26.33;16.88;;;4.10;98.50;;;;;;5035771;28;20087;-82
2021/11/25 01:17:24;;;;;;;28.23;16.83;;;4.10;98.50;;;;;;5019025;28;20025;-82
2021/11/25 01:19:51;;;;;;;26.25;16.08;;;4.10;98.50;;;;;;5024014;28;20529;-84
2021/11/25 01:22:17;;;;;;;26.98;16.58;;;4.10;98.60;;;;;;5033078;28;20132;-83
2021/11/25 01:24:43;;;;;;;22.60;15.95;;;4.00;98.60;;;;;;5014216;28;20122;-84
2021/11/25 01:27:09;;;;;;;26.63;16.63;;;4.00;98.70;;;;;;5014278;28;20029;-82
2021/11/25 01:29:34;;;;;;;30.05;16.42;;;4.00;98.70;;;;;;5021803;28;20029;-83
2021/11/25 01:32:00;;;;;;;26.67;16.20;;;4.00;98.80;;;;;;5026920;28;20040;-81
2021/11/25 01:34:25;;;;;;;28.50;16.85;;;3.90;98.90;;;;;;5016010;28;20028;-82
2021/11/25 01:36:51;;;;;;;28.15;17.10;;;3.90;99.00;;;;;;5013557;28;20037;-82
2021/11/25 01:39:17;;;;;;;27.50;16.05;;;3.80;99.00;;;;;;5021236;28;20073;-81
2021/11/25 01:41:44;;;;;;;26.67;16.92;;;3.80;99.10;;;;;;5015600;28;20029;-81
2021/11/25 01:44:09;;;;;;;26.17;16.85;;;3.80;99.20;;;;;;5023534;28;20406;-81
2021/11/25 01:46:35;;;;;;;27.63;17.42;;;3.70;99.30;;;;;;5024180;28;20030;-81
2021/11/25 01:49:01;;;;;;;29.55;17.75;;;3.70;99.40;;;;;;5033433;28;20053;-83
2021/11/25 01:51:26;;;;;;;25.58;16.77;;;3.70;99.50;;;;;;5034160;28;20032;-82
2021/11/25 01:53:52;;;;;;;28.02;17.38;;;3.70;99.60;;;;;;5049963;28;20049;-83
2021/11/25 01:56:18;;;;;;;29.02;16.80;;;3.70;99.50;;;;;;5041878;28;20034;-84
2021/11/25 01:58:46;;;;;;;29.40;17.52;;;3.60;99.60;;;;;;5053305;28;20041;-81
2021/11/25 02:01:15;;;;;;;28.85;17.65;;;3.60;99.60;;;;;;5025375;28;20037;-82
2021/11/25 02:03:41;;;;;;;28.13;17.55;;;3.60;99.70;;;;;;5038113;28;20057;-83
2021/11/25 02:06:08;;;;;;;26.77;16.77;;;3.60;99.70;;;;;;5013078;28;20033;-83
2021/11/25 02:08:34;;;;;;;27.23;16.55;;;3.50;99.80;;;;;;5028175;28;20037;-82
2021/11/25 02:10:59;;;;;;;28.52;17.70;;;3.50;99.80;;;;;;5030551;28;20033;-82
2021/11/25 02:13:27;;;;;;;27.38;16.95;;;3.50;99.80;;;;;;5012748;28;20038;-82
2021/11/25 02:15:53;;;;;;;23.13;17.00;;;3.50;99.90;;;;;;5016253;28;20085;-84
2021/11/25 02:18:20;;;;;;;25.38;17.17;;;3.50;99.90;;;;;;5024886;28;20060;-82
2021/11/25 02:20:50;;;;;;;24.42;17.00;;;3.40;99.90;;;;;;5017915;28;20029;-82
2021/11/25 02:23:17;;;;;;;29.45;17.83;;;3.40;99.90;;;;;;5024402;28;20040;-83
2021/11/25 02:25:43;;;;;;;27.92;17.20;;;3.40;99.90;;;;;;5023874;28;20033;-82
2021/11/25 02:28:09;;;;;;;36.13;17.52;;;3.40;99.90;;;;;;5029959;28;20033;-83
2021/11/25 02:30:35;;;;;;;27.42;18.00;;;3.50;99.90;;;;;;5026940;28;20025;-84
2021/11/25 02:33:01;;;;;;;31.73;18.88;;;3.50;99.90;;;;;;5026686;28;20025;-83
2021/11/25 02:35:37;;;;;;;27.13;18.35;;;3.60;99.90;;;;;;5016913;28;20037;-84
2021/11/25 02:38:03;;;;;;;31.98;18.73;;;3.70;99.90;;;;;;5032241;28;20030;-82
2021/11/25 02:40:38;;;;;;;26.98;17.20;;;3.70;99.90;;;;;;5042215;28;20040;-84
2021/11/25 02:43:10;;;;;;;26.02;18.33;;;3.80;99.90;;;;;;5041893;28;20042;-82
2021/11/25 02:45:51;;;;;;;28.33;17.55;;;3.90;99.90;;;;;;5025265;28;20417;-83
2021/11/25 02:48:19;;;;;;;27.00;16.83;;;3.90;99.90;;;;;;5025696;28;20022;-84
2021/11/25 02:50:46;;;;;;;26.02;17.10;;;3.90;99.90;;;;;;5019249;28;20036;-82
2021/11/25 02:53:17;;;;;;;29.63;17.75;;;4.00;99.90;;;;;;5022170;28;20512;-84
2021/11/25 02:55:43;;;;;;;24.55;16.60;;;4.10;99.90;;;;;;5029220;28;20029;-83
2021/11/25 02:58:09;;;;;;;25.98;16.95;;;4.10;99.90;;;;;;5022797;28;20763;-85
2021/11/25 03:00:38;;;;;;;25.30;17.23;;;4.20;99.90;;;;;;5025886;28;20041;-83
2021/11/25 03:03:07;;;;;;;26.05;17.25;;;4.20;99.90;;;;;;5016117;28;20482;-83
2021/11/25 03:05:35;;;;;;;22.48;15.88;;;4.30;99.90;;;;;;5024119;28;20030;-83
2021/11/25 03:08:06;;;;;;;25.17;16.73;;;4.40;99.90;;;;;;5023196;28;20030;-83
2021/11/25 03:10:36;;;;;;;23.88;16.00;;;4.40;99.90;;;;;;5027446;28;20108;-85
2021/11/25 03:13:02;;;;;;;21.77;14.93;;;4.50;99.90;;;;;;5032467;28;20037;-84
2021/11/25 03:15:33;;;;;;;23.15;15.55;;;4.50;99.90;;;;;;5021621;28;20029;-83
2021/11/25 03:17:59;;;;;;;27.13;15.27;;;4.60;99.90;;;;;;5039785;28;20022;-83
2021/11/25 03:20:25;;;;;;;23.17;15.05;;;4.60;99.90;;;;;;5045504;28;20044;-85
2021/11/25 03:22:50;;;;;;;19.08;13.23;;;4.60;99.90;;;;;;5034139;28;20057;-83
2021/11/25 03:25:16;;;;;;;23.38;14.40;;;4.70;99.90;;;;;;5026014;28;20034;-83
2021/11/25 03:27:42;;;;;;;25.80;16.13;;;4.70;99.80;;;;;;5018176;28;20557;-83
2021/11/25 03:30:08;;;;;;;20.95;14.05;;;4.70;99.60;;;;;;5032672;28;20107;-82
2021/11/25 03:32:33;;;;;;;20.35;14.68;;;4.80;99.70;;;;;;5013518;28;20355;-82
2021/11/25 03:34:59;;;;;;;16.52;12.65;;;4.80;99.50;;;;;;5011256;28;20053;-84
2021/11/25 03:37:24;;;;;;;20.33;14.82;;;4.80;99.40;;;;;;5023293;28;20026;-84
2021/11/25 03:39:50;;;;;;;17.83;13.40;;;4.80;99.20;;;;;;5016292;28;20033;-82
2021/11/25 03:42:15;;;;;;;19.65;14.23;;;4.80;99.10;;;;;;5020125;28;20030;-83
2021/11/25 03:44:44;;;;;;;20.30;14.35;;;4.80;98.90;;;;;;5031387;28;20044;-83
2021/11/25 03:47:10;;;;;;;20.08;13.50;;;4.90;99.00;;;;;;5019783;28;20148;-84
2021/11/25 03:49:35;;;;;;;18.38;12.98;;;4.90;98.90;;;;;;5020706;28;20124;-84
2021/11/25 03:52:01;;;;;;;19.00;14.32;;;4.90;98.80;;;;;;5025580;28;20026;-83
2021/11/25 03:54:26;;;;;;;20.50;13.63;;;4.90;98.70;;;;;;5019327;28;20140;-82
2021/11/25 03:56:52;;;;;;;20.85;13.82;;;4.90;98.70;;;;;;5016220;28;20034;-82
2021/11/25 03:59:17;;;;;;;18.48;14.65;;;4.90;98.50;;;;;;5024597;28;20116;-83
2021/11/25 04:01:43;;;;;;;20.48;13.85;;;4.90;98.50;;;;;;5029878;28;20029;-82
2021/11/25 04:04:10;;;;;;;18.15;12.57;;;5.00;98.40;;;;;;5012442;28;20088;-82
2021/11/25 04:06:36;;;;;;;18.45;12.63;;;5.00;98.50;;;;;;5018572;28;20425;-82
2021/11/25 04:09:02;;;;;;;16.33;11.77;;;4.90;98.30;;;;;;5025461;28;20052;-82
2021/11/25 04:11:27;;;;;;;16.00;12.43;;;4.90;98.10;;;;;;5023634;28;20025;-84
2021/11/25 04:13:53;;;;;;;17.00;11.43;;;4.90;98.00;;;;;;5023583;28;20513;-83
2021/11/25 04:16:18;;;;;;;18.10;12.43;;;5.00;98.00;;;;;;5016687;28;20026;-81
2021/11/25 04:18:44;;;;;;;17.60;12.48;;;4.90;97.90;;;;;;5017932;28;20135;-82
2021/11/25 04:21:09;;;;;;;19.13;11.75;;;4.90;97.90;;;;;;5023060;28;20097;-81
2021/11/25 04:23:35;;;;;;;15.82;12.13;;;4.90;97.90;;;;;;5028778;28;20037;-83
2021/11/25 04:26:00;;;;;;;17.73;11.45;;;4.90;97.80;;;;;;5020132;28;20402;-82
2021/11/25 04:28:26;;;;;;;16.80;11.80;;;4.90;97.90;;;;;;5021271;28;20033;-81
2021/11/25 04:35:27;;;;;;;16.17;12.07;;;4.90;97.70;;;;;;5014331;28;20080;-83
2021/11/25 04:36:21;;;;;;;17.98;11.60;;;4.90;97.60;;;;;;5020886;28;20028;-82
2021/11/25 04:38:47;;;;;;;17.45;11.75;;;4.90;97.60;;;;;;5028522;28;20037;-81
2021/11/25 04:41:12;;;;;;;17.92;12.30;;;4.80;97.80;;;;;;5025117;28;20030;-82
2021/11/25 04:43:38;;;;;;;19.58;12.00;;;4.80;97.80;;;;;;5021722;28;20524;-82
2021/11/25 04:46:05;;;;;;;22.17;12.02;;;4.80;97.80;;;;;;5013852;28;20084;-83
2021/11/25 04:48:31;;;;;;;15.02;11.35;;;4.80;97.90;;;;;;5021267;28;20026;-82
2021/11/25 04:50:57;;;;;;;17.05;12.23;;;4.80;97.80;;;;;;5023753;28;20032;-83
2021/11/25 04:53:23;;;;;;;22.38;12.25;;;4.80;97.80;;;;;;5034922;28;20159;-81
2021/11/25 04:55:49;;;;;;;20.67;13.95;;;4.80;97.80;;;;;;5029060;28;20089;-82
2021/11/25 04:58:15;;;;;;;18.05;12.65;;;4.80;98.00;;;;;;5040694;28;20040;-82
2021/11/25 05:00:41;;;;;;;16.70;12.45;;;4.90;98.10;;;;;;5029377;28;20050;-81
2021/11/25 05:03:07;;;;;;;17.17;12.25;;;4.90;98.00;;;;;;5021381;28;20079;-82
2021/11/25 05:05:32;;;;;;;17.10;12.30;;;4.90;98.10;;;;;;5033323;28;20037;-84
2021/11/25 05:07:58;;;;;;;17.63;12.93;;;4.90;98.10;;;;;;5029720;28;20470;-85
2021/11/25 05:10:23;;;;;;;17.30;12.27;;;4.90;98.10;;;;;;5031570;28;20033;-83
2021/11/25 05:12:49;;;;;;;17.25;11.30;;;4.90;98.10;;;;;;5030659;28;20394;-83
2021/11/25 05:15:15;;;;;;;16.77;12.00;;;4.90;97.90;;;;;;5017781;28;20041;-83
2021/11/25 05:17:41;;;;;;;17.35;11.88;;;5.00;97.50;;;;;;5029079;28;20029;-83
2021/11/25 05:20:10;;;;;;;16.38;12.73;;;5.00;97.40;;;;;;5028496;28;20498;-82
2021/11/25 05:22:36;;;;;;;18.33;12.90;;;4.90;97.40;;;;;;5018297;28;20463;-83
2021/11/25 05:25:03;;;;;;;21.02;13.02;;;4.90;97.40;;;;;;5010213;28;20092;-84
2021/11/25 05:27:28;;;;;;;18.27;12.38;;;4.90;97.60;;;;;;5023033;28;20033;-83
2021/11/25 05:29:54;;;;;;;16.05;11.82;;;4.90;97.50;;;;;;5015517;28;20496;-83
2021/11/25 05:32:19;;;;;;;14.73;10.65;;;4.90;97.40;;;;;;5021757;28;20437;-83
2021/11/25 05:34:45;;;;;;;18.92;13.00;;;4.90;97.50;;;;;;5018055;28;20034;-81
2021/11/25 05:37:15;;;;;;;16.27;12.05;;;4.90;97.50;;;;;;5016473;28;20025;-83
2021/11/25 05:39:42;;;;;;;16.42;12.93;;;4.90;97.50;;;;;;5019622;28;20112;-85
2021/11/25 05:42:08;;;;;;;20.85;12.20;;;4.80;97.50;;;;;;5028793;28;20048;-81
2021/11/25 05:44:34;;;;;;;17.20;12.30;;;4.80;97.30;;;;;;5018070;28;20048;-81
2021/11/25 05:47:00;;;;;;;18.90;13.15;;;4.80;97.40;;;;;;5029603;28;20026;-83
2021/11/25 05:49:26;;;;;;;18.73;12.77;;;4.80;97.40;;;;;;5027058;28;20479;-84
2021/11/25 05:51:51;;;;;;;15.20;11.77;;;4.70;97.60;;;;;;5035835;28;20032;-83
2021/11/25 05:54:17;;;;;;;21.17;12.25;;;4.70;97.40;;;;;;5035184;28;20033;-84
2021/11/25 05:56:43;;;;;;;16.73;11.65;;;4.70;97.40;;;;;;5025425;28;20468;-82
2021/11/25 05:59:08;;;;;;;16.27;12.35;;;4.70;97.40;;;;;;5016939;28;20131;-82
2021/11/25 06:01:34;;;;;;;18.73;12.70;;;4.70;97.60;;;;;;5019379;28;20041;-81
2021/11/25 06:04:00;;;;;;;19.70;13.00;;;4.70;97.50;;;;;;5020875;28;20393;-82
2021/11/25 06:06:25;;;;;;;23.15;15.15;;;4.70;97.50;;;;;;5024522;28;20188;-83
2021/11/25 06:08:51;;;;;;;21.05;14.82;;;4.70;97.40;;;;;;5023009;28;20375;-83
2021/11/25 06:11:17;;;;;;;21.05;13.68;;;4.70;97.50;;;;;;5011095;28;20133;-83
2021/11/25 06:13:43;;;;;;;17.52;13.00;;;4.70;97.40;;;;;;5022426;28;20062;-83
2021/11/25 06:16:09;;;;;;;16.00;12.55;;;4.70;97.60;;;;;;5025035;28;20065;-83
2021/11/25 06:18:35;;;;;;;17.00;12.70;;;4.80;97.60;;;;;;5023174;28;20390;-83
2021/11/25 06:21:00;;;;;;;18.45;12.50;;;4.80;97.50;;;;;;5014466;28;20064;-84
2021/11/25 06:23:26;;;;;;;18.23;12.52;;;4.80;97.30;;;;;;5011460;28;20112;-84
2021/11/25 06:25:51;;;;;;;16.45;11.93;;;4.80;97.30;;;;;;5020205;28;20041;-83
2021/11/25 06:28:17;;;;;;;17.77;12.57;;;4.80;97.20;;;;;;5031387;28;20123;-83
2021/11/25 06:30:43;;;;;;;22.52;13.38;;;4.80;97.00;;;;;;5017755;28;20037;-83
2021/11/25 06:33:08;;;;;;;17.30;13.13;;;4.70;97.10;;;;;;5027564;28;20043;-84
2021/11/25 06:35:34;;;;;;;18.00;13.32;;;4.70;97.20;;;;;;5022300;28;20036;-83
2021/11/25 06:38:00;;;;;;;17.70;12.73;;;4.70;97.10;;;;;;5024079;28;20335;-83
2021/11/25 06:40:28;;;;;;;16.85;12.55;;;4.70;97.10;;;;;;5024819;28;20429;-84
2021/11/25 06:42:56;;;;;;;17.80;11.73;;;4.70;97.10;;;;;;5028369;28;20047;-84
2021/11/25 06:45:23;;;;;;;16.70;13.05;;;4.80;97.10;;;;;;5025688;28;20060;-84
2021/11/25 06:47:48;;;;;;;18.40;12.23;;;4.80;96.90;;;;;;5020243;28;20044;-82
2021/11/25 06:50:16;;;;;;;16.90;12.02;;;4.80;96.80;;;;;;5030204;28;20029;-83
2021/11/25 06:52:42;;;;;;;14.82;11.27;;;4.80;96.80;;;;;;5025233;28;20068;-84
2021/11/25 06:55:10;;;;;;;16.63;12.35;;;4.80;96.80;;;;;;5022972;28;20064;-84
2021/11/25 06:57:37;;;;;;;17.77;12.50;;;4.80;96.80;;;;;;5024630;28;20030;-84
2021/11/25 07:00:11;;;;;;;17.95;12.80;;;4.90;96.80;;;;;;5026496;28;20103;-84
2021/11/25 07:02:37;;;;;;;17.10;12.45;;;4.90;96.90;;;;;;5027767;28;20041;-84
2021/11/25 07:05:04;;;;;;;18.23;12.93;;;4.90;96.80;;;;;;5027001;28;20049;-84
2021/11/25 07:07:30;;;;;;;15.68;11.02;;;4.80;96.90;;;;;;5025655;28;20505;-82
2021/11/25 07:09:56;;;;;;;18.92;11.20;;;4.90;96.80;;;;;;5024843;28;20517;-84
2021/11/25 07:12:21;;;;;;;13.23;10.35;;;4.90;96.70;;;;;;5024127;28;20033;-83
2021/11/25 07:14:47;;;;;;;14.05;10.93;;;4.90;96.70;;;;;;5024994;28;20037;-84
2021/11/25 07:17:13;;;;;;;15.55;10.90;;;5.00;96.60;;;;;;5029350;28;20037;-84
2021/11/25 07:19:39;;;;;;;14.20;11.32;;;5.00;96.50;;;;;;5018233;28;20481;-84
2021/11/25 07:22:04;;;;;;;13.38;10.10;;;4.90;96.50;;;;;;5020834;28;20041;-83
2021/11/25 07:24:30;;;;;;;14.52;10.82;;;4.90;96.70;;;;;;5011692;28;20103;-83
2021/11/25 07:26:55;;;;;;;14.15;10.15;;;4.90;96.70;;;;;;5023834;28;20040;-83
2021/11/25 07:29:23;;;;;;;15.00;11.05;;;4.90;96.40;;;;;;5031553;28;20038;-84
2021/11/25 07:31:48;;;;;;;15.43;10.88;;;4.90;96.50;;;;;;5021231;28;20049;-84
2021/11/25 07:34:14;;;;;;;14.93;10.27;;;4.90;96.70;;;;;;5022072;28;20122;-84
2021/11/25 07:36:39;;;;;;;15.23;10.10;;;4.90;96.60;;;;;;5028939;28;20029;-84
2021/11/25 07:39:05;;;;;;;16.10;11.63;;;4.80;96.70;;;;;;5025789;28;20040;-83
2021/11/25 07:41:33;;;;;;;17.33;11.35;;;4.90;96.70;;;;;;5015206;28;20056;-83
2021/11/25 07:43:59;;;;;;;15.68;11.60;;;4.90;96.60;;;;;;5021234;28;20490;-84
2021/11/25 07:46:25;;;;;;;12.60;9.52;;;4.90;96.80;;;;;;5028359;28;20028;-82
2021/11/25 07:48:50;;;;;;;14.52;11.00;;;4.90;96.40;;;;;;5026128;28;20252;-82
2021/11/25 07:51:16;;;;;;;17.67;12.40;;;4.90;96.60;;;;;;5030708;28;20036;-83
2021/11/25 07:53:42;;;;;;;15.95;11.52;;;4.90;96.80;;;;;;5045742;28;20022;-84
2021/11/25 07:56:08;;;;;;;15.80;11.63;;;4.90;96.60;;;;;;5051385;28;20034;-84
2021/11/25 07:58:34;;;;;;;16.02;10.82;;;4.90;96.50;;;;;;5039693;28;20112;-84
2021/11/25 08:00:59;;;;;;;15.63;11.70;;;5.00;96.60;;;;;;5024825;28;20418;-84
2021/11/25 08:03:25;;;;;;;17.40;11.35;;;5.00;96.70;;;;;;5011992;28;20099;-84
2021/11/25 08:05:50;;;;;;;15.60;12.43;;;5.00;96.60;;;;;;5017377;28;20820;-84
2021/11/25 08:08:16;;;;;;;15.65;11.63;;;5.10;96.40;;;;;;5021171;28;20025;-84
2021/11/25 08:10:41;;;;;;;19.58;13.05;;;5.00;96.30;;;;;;5028804;28;20172;-84
2021/11/25 08:13:07;;;;;;;16.42;11.40;;;4.90;96.60;;;;;;5022688;28;20114;-83
2021/11/25 08:15:34;;;;;;;12.77;8.98;;;4.90;96.60;;;;;;5039447;28;20040;-84
2021/11/25 08:18:01;;;;;;;16.27;12.75;;;5.00;96.30;;;;;;5018382;28;20110;-83
2021/11/25 08:20:26;;;;;;;17.73;12.02;;;5.10;96.30;;;;;;5020032;28;20061;-84
2021/11/25 08:22:52;;;;;;;16.52;12.52;;;5.10;96.30;;;;;;5019026;28;20049;-83
2021/11/25 08:25:21;;;;;;;14.10;11.07;;;5.20;96.40;;;;;;5015855;28;20123;-84
2021/11/25 08:27:47;;;;;;;15.63;11.02;;;5.30;96.30;;;;;;5017584;28;20032;-84
2021/11/25 08:30:14;;;;;;;14.95;11.23;;;5.30;96.30;;;;;;5013638;28;20037;-83
2021/11/25 08:32:41;;;;;;;16.45;11.43;;;5.40;96.10;;;;;;5013349;28;20525;-83
2021/11/25 08:35:08;;;;;;;17.48;12.65;;;5.40;95.90;;;;;;5015039;28;20052;-83
2021/11/25 08:37:35;;;;;;;17.27;11.40;;;5.50;95.70;;;;;;5015683;28;20125;-84
2021/11/25 08:40:01;;;;;;;19.73;13.10;;;5.50;95.60;;;;;;5023025;28;20150;-83
2021/11/25 08:42:27;;;;;;;17.00;11.77;;;5.50;95.80;;;;;;5027310;28;20061;-83
2021/11/25 08:44:52;;;;;;;20.23;13.52;;;5.60;95.80;;;;;;5034859;28;20028;-84
2021/11/25 08:47:19;;;;;;;19.42;13.90;;;5.60;95.70;;;;;;5010874;28;20033;-83
2021/11/25 08:49:44;;;;;;;17.02;13.02;;;5.60;95.40;;;;;;5021741;28;20036;-84
2021/11/25 08:52:10;;;;;;;16.30;11.57;;;5.70;95.40;;;;;;5024329;28;20096;-84
2021/11/25 08:54:36;;;;;;;17.25;12.20;;;5.60;95.30;;;;;;5030970;28;20092;-83
2021/11/25 08:57:02;;;;;;;17.23;13.75;;;5.60;95.30;;;;;;5021746;28;20044;-84
2021/11/25 08:59:28;;;;;;;16.73;12.60;;;5.60;95.20;;;;;;5014917;28;20550;-84
2021/11/25 09:01:53;;;;;;;16.33;11.70;;;5.50;95.30;;;;;;5025204;28;20730;-84
2021/11/25 09:04:19;;;;;;;18.77;12.68;;;5.50;95.60;;;;;;5021606;28;20041;-84
2021/11/25 09:06:45;;;;;;;20.25;12.35;;;5.50;95.70;;;;;;5027717;28;20071;-82
2021/11/25 09:09:11;;;;;;;17.33;12.38;;;5.50;95.80;;;;;;5020330;28;20083;-84
2021/11/25 09:11:37;;;;;;;18.70;12.30;;;5.50;95.80;;;;;;5029152;28;20028;-84
2021/11/25 09:14:03;;;;;;;15.00;10.73;;;5.50;95.70;;;;;;5020565;28;20037;-84
2021/11/25 09:16:29;;;;;;;14.15;11.00;;;5.40;95.70;;;;;;5017982;28;20490;-83
2021/11/25 09:18:55;;;;;;;17.42;11.40;;;5.50;95.80;;;;;;5021102;28;20040;-83
2021/11/25 09:21:21;;;;;;;14.45;10.98;;;5.50;95.70;;;;;;5023431;28;20046;-83
2021/11/25 09:23:48;;;;;;;13.98;10.93;;;5.50;95.90;;;;;;5027567;28;20068;-83
2021/11/25 09:26:14;;;;;;;21.55;12.15;;;5.60;95.90;;;;;;5027223;28;20099;-82
2021/11/25 09:28:40;;;;;;;16.40;11.18;;;5.60;95.60;;;;;;5027553;28;20041;-83
2021/11/25 09:31:07;;;;;;;16.80;12.40;;;5.60;95.50;;;;;;5025787;28;20064;-84
2021/11/25 09:33:32;;;;;;;15.65;11.77;;;5.60;95.60;;;;;;5009711;28;20030;-82
2021/11/25 09:35:59;;;;;;;16.15;11.27;;;5.70;95.50;;;;;;5010168;28;20092;-83
2021/11/25 09:38:24;;;;;;;14.60;10.13;;;5.70;95.30;;;;;;5026681;28;20029;-82
2021/11/25 09:40:50;;;;;;;14.68;10.73;;;5.80;95.40;;;;;;5025885;28;20040;-83
2021/11/25 09:43:24;;;;;;;17.15;12.02;;;5.90;95.60;;;;;;5027647;28;20520;-84
2021/11/25 09:45:50;;;;;;;15.85;11.80;;;5.90;95.40;;;;;;5027245;28;20434;-84
2021/11/25 09:48:17;;;;;;;16.40;11.93;;;5.90;95.20;;;;;;5026488;28;20026;-84
2021/11/25 09:50:45;;;;;;;17.83;12.05;;;5.90;95.30;;;;;;5025416;28;20033;-83
2021/11/25 09:53:14;;;;;;;16.13;11.75;;;6.00;94.90;;;;;;5027096;28;20049;-84
2021/11/25 09:55:42;;;;;;;17.70;13.02;;;6.00;95.10;;;;;;5027158;28;20135;-84
2021/11/25 09:58:12;;;;;;;17.15;12.82;;;6.00;95.20;;;;;;5013912;28;20038;-84
2021/11/25 10:00:41;;;;;;;18.05;13.40;;;6.00;94.90;;;;;;5024191;28;20037;-84
2021/11/25 10:03:06;;;;;;;17.60;12.93;;;6.00;95.00;;;;;;5007682;28;20022;-84
2021/11/25 10:05:32;;;;;;;17.27;12.65;;;6.00;95.40;;;;;;5017888;28;20088;-83
2021/11/25 10:07:57;;;;;;;18.13;12.35;;;5.90;95.20;;;;;;5012313;28;20141;-83
2021/11/25 10:10:29;;;;;;;19.75;13.35;;;5.80;95.40;;;;;;5024364;28;20030;-83
2021/11/25 10:13:02;;;;;;;19.95;13.98;;;5.80;95.90;;;;;;5031440;28;20104;-84
2021/11/25 10:15:35;;;;;;;17.92;13.20;;;5.90;95.80;;;;;;5022117;28;20037;-84
2021/11/25 10:18:06;;;;;;;15.65;11.82;;;5.90;95.90;;;;;;5025044;28;20033;-83
2021/11/25 10:20:36;;;;;;;19.00;13.50;;;5.80;95.90;;;;;;5029932;28;20038;-83
2021/11/25 10:23:02;;;;;;;20.85;13.82;;;5.80;96.00;;;;;;5030271;28;20073;-83
2021/11/25 10:25:46;;;;;;;18.85;12.95;;;5.80;95.90;;;;;;5030904;28;20088;-82
2021/11/25 10:28:25;;;;;;;19.10;12.73;;;5.80;96.10;;;;;;5029221;28;20511;-83
2021/11/25 10:30:58;;;;;;;21.52;13.80;;;5.80;96.20;;;;;;5028439;28;20095;-83
2021/11/25 10:33:30;;;;;;;;;;;5.70;96.20;;;;;;5031386;28;20041;-83
2021/11/25 10:36:26;;;;;;;19.77;13.85;;;5.70;96.30;;;;;;5030681;28;19905;-83
2021/11/25 10:41:20;;;;;;;23.25;13.90;;;5.60;97.00;;;;;;5029362;28;20063;-84
2021/11/25 10:44:10;;;;;;;17.13;12.43;;;5.60;97.00;;;;;;5034500;28;20435;-84
2021/11/25 10:46:54;;;;;;;17.42;12.40;;;5.70;97.10;;;;;;5039182;28;20040;-84
2021/11/25 10:49:36;;;;;;;18.55;13.52;;;5.70;96.60;;;;;;5028044;28;20038;-83
2021/11/25 10:52:08;;;;;;;20.33;13.60;;;5.70;96.80;;;;;;5029908;28;20429;-83
2021/11/25 10:54:39;;;;;;;20.17;12.82;;;5.70;96.90;;;;;;5029496;28;20470;-83
2021/11/25 10:57:06;;;;;;;22.83;12.60;;;5.70;96.50;;;;;;5038082;28;20037;-82
2021/11/25 10:59:41;;;;;;;18.58;12.73;;;5.70;96.60;;;;;;5034630;28;20068;-83
2021/11/25 11:02:23;;;;;;;20.38;13.25;;;5.70;96.90;;;;;;5027199;28;20457;-83
2021/11/25 11:04:49;;;;;;;16.30;10.03;;;5.80;96.90;;;;;;5032597;28;20675;-84
2021/11/25 11:07:22;;;;;;;16.65;12.13;;;5.80;96.80;;;;;;5032052;28;20279;-83
2021/11/25 11:09:48;;;;;;;19.70;13.80;;;5.70;96.70;;;;;;5021094;28;20034;-84
2021/11/25 11:12:50;;;;;;;31.90;14.25;;;5.70;97.00;;;;;;5026967;28;20043;-84
2021/11/25 11:15:27;;;;;;;20.63;13.80;;;5.80;96.90;;;;;;5012267;28;20040;-84
2021/11/25 11:18:42;;;;;;;18.15;12.52;;;5.90;97.00;;;;;;5024058;28;20132;-83
2021/11/25 11:20:48;;;;;;;21.42;12.70;;;5.90;96.80;;;;;;5025194;28;20033;-84
2021/11/25 11:23:19;;;;;;;19.60;12.63;;;5.90;96.80;;;;;;5020797;28;20468;-84
2021/11/25 11:25:45;;;;;;;20.48;14.38;;;6.00;96.80;;;;;;5020832;28;20175;-83
2021/11/25 11:28:12;;;;;;;20.23;13.15;;;5.90;96.60;;;;;;5041878;28;20114;-84
2021/11/25 11:30:38;;;;;;;19.25;12.95;;;5.80;96.70;;;;;;5022979;28;20115;-84
2021/11/25 11:33:07;;;;;;;17.55;12.57;;;5.90;96.70;;;;;;5014082;28;20026;-84
2021/11/25 11:35:33;;;;;;;18.55;12.05;;;5.90;96.80;;;;;;5016231;28;20430;-85
2021/11/25 11:38:01;;;;;;;22.48;13.93;;;5.90;96.50;;;;;;5011902;28;20137;-84
2021/11/25 11:40:29;;;;;;;22.00;12.63;;;5.90;96.70;;;;;;5023497;28;20069;-85
2021/11/25 11:42:58;;;;;;;20.30;12.82;;;5.90;96.80;;;;;;5010355;28;20117;-83
2021/11/25 11:45:24;;;;;;;22.05;13.77;;;5.80;96.80;;;;;;5018009;28;20389;-81
2021/11/25 11:47:53;;;;;;;21.67;13.45;;;5.90;96.90;;;;;;5026311;28;20033;-85
2021/11/25 11:50:30;;;;;;;18.30;12.57;;;5.90;96.60;;;;;;5019286;28;20036;-83
2021/11/25 11:52:59;;;;;;;21.83;13.45;;;5.90;96.80;;;;;;5020521;28;20034;-83
2021/11/25 11:55:37;;;;;;;22.70;13.82;;;5.90;97.10;;;;;;5043194;28;20037;-84
2021/11/25 11:58:33;;;;;;;21.33;12.20;;;5.90;96.90;;;;;;5027107;28;20030;-83
2021/11/25 12:01:06;;;;;;;18.30;12.10;;;5.90;96.80;;;;;;5027372;28;20144;-84
2021/11/25 12:03:39;;;;;;;20.25;12.07;;;5.90;96.90;;;;;;5029622;28;20038;-84
2021/11/25 12:06:05;;;;;;;;;;;5.90;96.80;;;;;;5022948;28;20025;-83
2021/11/25 12:08:34;;;;;;;19.83;12.43;;;5.90;96.80;;;;;;5021057;28;20551;-83
2021/11/25 12:11:04;;;;;;;18.83;12.38;;;5.90;96.90;;;;;;5020335;28;20096;-82
2021/11/25 12:13:54;;;;;;;19.40;13.05;;;5.90;97.00;;;;;;5009659;28;20060;-82
2021/11/25 12:16:19;;;;;;;20.75;13.68;;;5.90;97.00;;;;;;5032751;28;20037;-83
2021/11/25 12:18:54;;;;;;;18.15;12.27;;;5.90;97.00;;;;;;5033190;28;20036;-83
2021/11/25 12:21:46;;;;;;;22.85;13.48;;;5.80;97.00;;;;;;5022506;28;20461;-82
2021/11/25 12:24:15;;;;;;;21.00;13.18;;;5.90;97.30;;;;;;5034621;28;20037;-83
2021/11/25 12:27:17;;;;;;;18.33;13.85;;;5.90;97.50;;;;;;5037564;28;20034;-83
2021/11/25 12:30:00;;;;;;;18.25;12.35;;;5.90;97.20;;;;;;5027238;28;20034;-83
2021/11/25 12:32:40;;;;;;;22.45;13.88;;;5.80;97.50;;;;;;5029665;28;20528;-81
2021/11/25 12:35:13;;;;;;;29.35;16.67;;;5.80;97.50;;;;;;5027590;28;20025;-82
2021/11/25 12:37:41;;;;;;;22.77;14.57;;;5.70;97.60;;;;;;5029601;28;20017;-83
2021/11/25 12:40:27;;;;;;;19.67;13.15;;;5.70;97.50;;;;;;5027177;28;20046;-83
2021/11/25 12:43:14;;;;;;;24.50;15.07;;;5.70;97.50;;;;;;5022845;28;20398;-85
2021/11/25 12:45:49;;;;;;;17.98;12.05;;;5.70;97.70;;;;;;5037839;28;20078;-83
2021/11/25 12:48:27;;;;;;;217.75;90.00;;;5.70;97.60;;;;;;5041402;28;20017;-83